createdAt,value
2022-08-24T00:01:18.412Z,101070.30
2022-08-24T00:03:45.954Z,101081.09
2022-08-24T00:06:17.071Z,101082.69
2022-08-24T00:08:44.332Z,101080.92
2022-08-24T00:11:11.105Z,101084.11
2022-08-24T00:13:39.493Z,101086.05
2022-08-24T00:16:07.939Z,101083.39
2022-08-24T00:18:35.083Z,101084.45
2022-08-24T00:21:02.119Z,101091.17
2022-08-24T00:23:29.230Z,101089.41
2022-08-24T00:25:57.048Z,101092.06
2022-08-24T00:28:24.111Z,101095.95
2022-08-24T00:30:50.867Z,101096.48
2022-08-24T00:33:17.689Z,101097.91
2022-08-24T00:35:44.741Z,101096.49
2022-08-24T00:38:11.369Z,101097.38
2022-08-24T00:40:42.327Z,101097.00
2022-08-24T00:43:10.609Z,101098.27
2022-08-24T00:45:43.057Z,101100.02
2022-08-24T00:48:17.120Z,101101.97
2022-08-24T00:50:53.578Z,101097.73
2022-08-24T00:53:42.552Z,101096.67
2022-08-24T00:56:20.418Z,101092.95
2022-08-24T00:58:58.798Z,101092.23
2022-08-24T01:01:27.525Z,101094.35
2022-08-24T01:03:57.243Z,101089.77
2022-08-24T01:06:24.692Z,101092.75
2022-08-24T01:08:54.139Z,101092.58
2022-08-24T01:11:27.589Z,101097.72
2022-08-24T01:14:02.057Z,101096.47
2022-08-24T01:16:47.393Z,101091.52
2022-08-24T01:19:29.869Z,101090.63
2022-08-24T01:22:15.286Z,101090.09
2022-08-24T01:24:42.983Z,101088.15
2022-08-24T01:27:11.193Z,101092.23
2022-08-24T01:29:40.696Z,101097.71
2022-08-24T01:32:07.270Z,101103.02
2022-08-24T01:34:33.792Z,101101.42
2022-08-24T01:37:01.965Z,101103.38
2022-08-24T01:39:33.417Z,101105.15
2022-08-24T01:42:01.248Z,101098.59
2022-08-24T01:44:33.451Z,101096.65
2022-08-24T01:47:00.936Z,101094.52
2022-08-24T01:49:36.373Z,101093.64
2022-08-24T01:52:05.871Z,101093.28
2022-08-24T01:54:33.296Z,101089.22
2022-08-24T01:57:00.281Z,101087.63
2022-08-24T01:59:27.750Z,101084.26
2022-08-24T02:02:21.544Z,101084.08
2022-08-24T02:04:48.353Z,101082.30
2022-08-24T02:07:14.881Z,101083.89
2022-08-24T02:09:41.795Z,101084.42
2022-08-24T02:12:08.709Z,101080.88
2022-08-24T02:14:35.933Z,101078.58
2022-08-24T02:17:04.873Z,101081.92
2022-08-24T02:19:31.747Z,101083.88
2022-08-24T02:21:59.960Z,101082.83
2022-08-24T02:24:29.875Z,101081.76
2022-08-24T02:26:57.112Z,101082.42
2022-08-24T02:29:24.280Z,101081.56
2022-08-24T02:31:51.245Z,101086.49
2022-08-24T02:34:17.881Z,101089.85
2022-08-24T02:36:44.721Z,101089.84
2022-08-24T02:39:11.251Z,101093.90
2022-08-24T02:41:37.926Z,101095.52
2022-08-24T02:44:05.940Z,101099.05
2022-08-24T02:46:32.972Z,101097.44
2022-08-24T02:49:11.298Z,101101.17
2022-08-24T02:51:44.548Z,101105.23
2022-08-24T02:54:17.013Z,101107.69
2022-08-24T02:56:44.030Z,101110.52
2022-08-24T02:59:10.957Z,101113.16
2022-08-24T03:01:37.593Z,101116.88
2022-08-24T03:04:04.996Z,101115.98
2022-08-24T03:06:32.151Z,101120.41
2022-08-24T03:08:58.804Z,101117.92
2022-08-24T03:11:27.912Z,101125.70
2022-08-24T03:13:58.013Z,101127.13
2022-08-24T03:16:26.227Z,101131.19
2022-08-24T03:18:53.049Z,101127.48
2022-08-24T03:21:20.174Z,101132.27
2022-08-24T03:23:47.155Z,101134.73
2022-08-24T03:26:13.783Z,101135.29
2022-08-24T03:28:40.801Z,101133.17
2022-08-24T03:31:07.292Z,101134.39
2022-08-24T03:33:33.895Z,101141.11
2022-08-24T03:36:00.353Z,101142.17
2022-08-24T03:38:27.836Z,101141.45
2022-08-24T03:40:54.286Z,101146.41
2022-08-24T03:43:40.027Z,101151.71
2022-08-24T03:46:08.249Z,101153.30
2022-08-24T03:48:36.096Z,101154.70
2022-08-24T03:51:03.081Z,101160.02
2022-08-24T03:53:29.664Z,101164.07
2022-08-24T03:55:56.254Z,101168.66
2022-08-24T03:58:22.696Z,101170.95
2022-08-24T04:00:49.314Z,101169.86
2022-08-24T04:03:15.877Z,101168.99
2022-08-24T04:05:42.455Z,101173.41
2022-08-24T04:08:09.047Z,101173.73
2022-08-24T04:10:35.606Z,101174.80
2022-08-24T04:13:02.532Z,101174.27
2022-08-24T04:15:31.576Z,101174.13
2022-08-24T04:17:58.329Z,101176.61
2022-08-24T04:20:25.218Z,101178.02
2022-08-24T04:22:51.971Z,101178.54
2022-08-24T04:25:24.707Z,101177.83
2022-08-24T04:27:51.585Z,101179.95
2022-08-24T04:30:18.183Z,101182.44
2022-08-24T04:32:44.943Z,101181.91
2022-08-24T04:35:12.477Z,101184.04
2022-08-24T04:37:38.911Z,101187.42
2022-08-24T04:40:07.628Z,101185.83
2022-08-24T04:42:34.960Z,101187.62
2022-08-24T04:45:02.307Z,101183.91
2022-08-24T04:47:28.814Z,101186.05
2022-08-24T04:49:55.232Z,101188.72
2022-08-24T04:52:21.845Z,101186.80
2022-08-24T04:54:48.488Z,101187.39
2022-08-24T04:57:18.196Z,101184.98
2022-08-24T04:59:45.965Z,101181.67
2022-08-24T05:02:12.809Z,101181.69
2022-08-24T05:04:39.713Z,101183.13
2022-08-24T05:07:06.120Z,101186.69
2022-08-24T05:09:32.749Z,101186.50
2022-08-24T05:12:00.783Z,101190.77
2022-08-24T05:14:29.142Z,101187.21
2022-08-24T05:16:56.099Z,101188.12
2022-08-24T05:19:23.702Z,101191.15
2022-08-24T05:21:50.886Z,101186.31
2022-08-24T05:24:18.989Z,101185.29
2022-08-24T05:26:45.790Z,101183.52
2022-08-24T05:29:12.450Z,101180.91
2022-08-24T05:31:43.237Z,101176.70
2022-08-24T05:34:10.186Z,101180.27
2022-08-24T05:36:38.648Z,101178.15
2022-08-24T05:39:11.292Z,101180.63
2022-08-24T05:41:43.960Z,101177.08
2022-08-24T05:44:13.404Z,101180.10
2022-08-24T05:46:40.396Z,101179.23
2022-08-24T05:49:07.704Z,101185.61
2022-08-24T05:51:35.447Z,101185.25
2022-08-24T05:54:04.478Z,101190.20
2022-08-24T05:56:32.116Z,101191.80
2022-08-24T05:58:58.859Z,101196.96
2022-08-24T06:01:26.687Z,101200.52
2022-08-24T06:03:54.834Z,101202.13
2022-08-24T06:06:23.345Z,101196.64
2022-08-24T06:08:52.220Z,101202.34
2022-08-24T06:11:30.075Z,101206.39
2022-08-24T06:14:00.592Z,101212.62
2022-08-24T06:16:27.493Z,101211.02
2022-08-24T06:18:54.297Z,101208.89
2022-08-24T06:21:24.201Z,101209.40
2022-08-24T06:23:51.061Z,101206.93
2022-08-24T06:26:38.237Z,101211.17
2022-08-24T06:29:06.687Z,101208.70
2022-08-24T06:31:42.011Z,101209.06
2022-08-24T06:34:10.665Z,101215.79
2022-08-24T06:36:37.720Z,101216.52
2022-08-24T06:39:08.610Z,101223.07
2022-08-24T06:41:38.315Z,101223.95
2022-08-24T06:44:06.452Z,101226.44
2022-08-24T06:46:33.319Z,101229.27
2022-08-24T06:49:00.381Z,101229.27
2022-08-24T06:51:26.872Z,101235.83
2022-08-24T06:53:57.990Z,101243.11
2022-08-24T06:56:24.570Z,101240.80
2022-08-24T06:58:51.411Z,101238.30
2022-08-24T07:01:20.553Z,101244.34
2022-08-24T07:03:47.422Z,101242.92
2022-08-24T07:06:17.551Z,101246.48
2022-08-24T07:08:44.443Z,101253.74
2022-08-24T07:11:14.069Z,101252.86
2022-08-24T07:13:41.576Z,101255.16
2022-08-24T07:16:09.469Z,101250.73
2022-08-24T07:18:36.637Z,101252.67
2022-08-24T07:21:04.607Z,101258.17
2022-08-24T07:23:41.390Z,101254.64
2022-08-24T07:26:22.331Z,101253.38
2022-08-24T07:29:04.311Z,101250.72
2022-08-24T07:31:36.387Z,101247.70
2022-08-24T07:34:05.098Z,101246.42
2022-08-24T07:36:31.727Z,101244.27
2022-08-24T07:38:58.403Z,101245.69
2022-08-24T07:44:14.990Z,101252.85
2022-08-24T07:46:41.884Z,101252.98
2022-08-24T07:49:11.964Z,101255.04
2022-08-24T07:51:47.127Z,101260.98
2022-08-24T07:54:14.933Z,101258.14
2022-08-24T07:56:42.397Z,101255.81
2022-08-24T07:59:13.068Z,101260.38
2022-08-24T08:01:41.638Z,101261.52
2022-08-24T08:04:09.280Z,101261.31
2022-08-24T08:06:36.393Z,101260.93
2022-08-24T08:09:04.795Z,101263.77
2022-08-24T08:11:31.829Z,101265.27
2022-08-24T08:13:58.651Z,101269.55
2022-08-24T08:16:25.713Z,101274.27
2022-08-24T08:19:09.366Z,101273.05
2022-08-24T08:22:09.114Z,101268.96
2022-08-24T08:24:37.828Z,101268.40
2022-08-24T08:27:05.241Z,101267.45
2022-08-24T08:29:33.515Z,101264.09
2022-08-24T08:32:00.538Z,101269.88
2022-08-24T08:34:27.733Z,101270.36
2022-08-24T08:36:54.566Z,101272.08
2022-08-24T08:39:22.898Z,101271.05
2022-08-24T08:42:14.392Z,101272.05
2022-08-24T08:45:01.901Z,101272.48
2022-08-24T08:48:10.206Z,101272.44
2022-08-24T08:51:16.773Z,101275.66
2022-08-24T08:54:21.923Z,101274.05
2022-08-24T08:57:07.435Z,101275.86
2022-08-24T09:00:01.072Z,101276.49
2022-08-24T09:02:49.544Z,101276.98
2022-08-24T09:05:18.577Z,101277.54
2022-08-24T09:07:54.915Z,101277.59
2022-08-24T09:10:28.189Z,101274.84
2022-08-24T09:13:19.327Z,101274.65
2022-08-24T09:15:55.918Z,101272.91
2022-08-24T09:18:31.880Z,101276.22
2022-08-24T09:21:13.617Z,101278.01
2022-08-24T09:24:08.231Z,101282.27
2022-08-24T09:26:58.925Z,101282.97
2022-08-24T09:30:09.417Z,101283.11
2022-08-24T09:32:55.279Z,101283.91
2022-08-24T09:35:36.946Z,101278.63
2022-08-24T09:38:17.514Z,101279.21
2022-08-24T09:41:21.712Z,101286.46
2022-08-24T09:44:16.004Z,101280.02
2022-08-24T09:46:57.572Z,101276.76
2022-08-24T09:49:46.776Z,101278.01
2022-08-24T09:52:34.836Z,101275.66
2022-08-24T09:55:23.233Z,101277.90
2022-08-24T09:58:02.025Z,101278.23
2022-08-24T10:00:37.057Z,101281.88
2022-08-24T10:03:36.480Z,101282.24
2022-08-24T10:06:13.678Z,101280.48
2022-08-24T10:09:10.492Z,101279.55
2022-08-24T10:11:59.184Z,101278.77
2022-08-24T10:14:31.369Z,101278.23
2022-08-24T10:17:42.639Z,101276.73
2022-08-24T10:20:25.506Z,101276.28
2022-08-24T10:23:14.283Z,101274.95
2022-08-24T10:26:18.195Z,101277.73
2022-08-24T10:29:05.195Z,101274.79
2022-08-24T10:31:40.366Z,101273.55
2022-08-24T10:34:51.075Z,101272.83
2022-08-24T10:37:34.820Z,101274.66
2022-08-24T10:40:12.573Z,101272.95
2022-08-24T10:43:13.173Z,101275.51
2022-08-24T10:45:58.515Z,101271.92
2022-08-24T10:48:33.479Z,101268.23
2022-08-24T10:51:23.270Z,101271.02
2022-08-24T10:53:53.069Z,101274.45
2022-08-24T10:56:29.256Z,101270.81
2022-08-24T10:59:18.200Z,101270.48
2022-08-24T11:02:03.280Z,101269.45
2022-08-24T11:04:39.089Z,101269.35
2022-08-24T11:07:14.639Z,101269.60
2022-08-24T11:09:56.400Z,101269.98
2022-08-24T11:12:26.504Z,101269.73
2022-08-24T11:14:56.880Z,101268.20
2022-08-24T11:17:27.046Z,101265.98
2022-08-24T11:19:54.529Z,101271.30
2022-08-24T11:22:40.928Z,101274.01
2022-08-24T11:25:19.127Z,101268.16
2022-08-24T11:27:50.312Z,101267.45
2022-08-24T11:30:19.378Z,101268.48
2022-08-24T11:32:57.741Z,101271.17
2022-08-24T11:35:42.085Z,101267.77
2022-08-24T11:38:16.503Z,101273.72
2022-08-24T11:41:07.743Z,101272.91
2022-08-24T11:43:43.605Z,101275.34
2022-08-24T11:46:13.673Z,101272.17
2022-08-24T11:49:23.542Z,101274.77
2022-08-24T11:52:21.578Z,101280.33
2022-08-24T11:54:47.855Z,101274.19
2022-08-24T11:57:32.724Z,101273.38
2022-08-24T12:00:15.150Z,101278.45
2022-08-24T12:03:02.002Z,101276.27
2022-08-24T12:05:56.628Z,101278.70
2022-08-24T12:08:45.464Z,101276.02
2022-08-24T12:11:20.267Z,101277.31
2022-08-24T12:14:02.110Z,101275.43
2022-08-24T12:16:51.003Z,101277.20
2022-08-24T12:19:25.266Z,101272.14
2022-08-24T12:21:57.205Z,101269.15
2022-08-24T12:24:33.032Z,101275.75
2022-08-24T12:27:10.141Z,101278.17
2022-08-24T12:29:44.107Z,101282.60
2022-08-24T12:32:18.433Z,101280.71
2022-08-24T12:35:06.168Z,101277.76
2022-08-24T12:37:35.497Z,101271.48
2022-08-24T12:40:08.093Z,101270.16
2022-08-24T12:42:55.517Z,101276.27
2022-08-24T12:45:23.811Z,101274.71
2022-08-24T12:47:59.640Z,101275.10
2022-08-24T12:50:33.207Z,101272.75
2022-08-24T12:53:21.329Z,101265.33
2022-08-24T12:56:04.924Z,101261.67
2022-08-24T12:58:53.896Z,101267.08
2022-08-24T13:01:25.523Z,101266.48
2022-08-24T13:04:23.079Z,101267.58
2022-08-24T13:06:59.880Z,101265.64
2022-08-24T13:09:33.861Z,101262.83
2022-08-24T13:12:38.604Z,101269.25
2022-08-24T13:15:20.444Z,101268.61
2022-08-24T13:17:49.558Z,101270.79
2022-08-24T13:20:49.893Z,101262.22
2022-08-24T13:23:18.339Z,101262.45
2022-08-24T13:25:50.843Z,101262.94
2022-08-24T13:28:20.120Z,101264.63
2022-08-24T13:30:52.967Z,101264.77
2022-08-24T13:34:01.550Z,101265.55
2022-08-24T13:36:30.703Z,101269.95
2022-08-24T13:39:10.514Z,101262.58
2022-08-24T13:41:43.424Z,101264.44
2022-08-24T13:44:33.844Z,101260.38
2022-08-24T13:47:24.024Z,101261.21
2022-08-24T13:50:09.521Z,101260.23
2022-08-24T13:53:25.656Z,101260.36
2022-08-24T13:56:11.835Z,101258.67
2022-08-24T13:58:59.811Z,101252.67
2022-08-24T14:01:30.511Z,101255.25
2022-08-24T14:04:18.713Z,101254.38
2022-08-24T14:06:59.211Z,101252.38
2022-08-24T14:09:55.967Z,101252.23
2022-08-24T14:12:38.076Z,101251.77
2022-08-24T14:16:11.323Z,101252.84
2022-08-24T14:18:53.621Z,101254.71
2022-08-24T14:21:32.849Z,101256.02
2022-08-24T14:24:10.272Z,101251.69
2022-08-24T14:26:37.534Z,101250.55
2022-08-24T14:29:19.437Z,101254.52
2022-08-24T14:31:58.575Z,101251.95
2022-08-24T14:34:34.291Z,101247.64
2022-08-24T14:37:13.022Z,101251.16
2022-08-24T14:39:48.787Z,101250.41
2022-08-24T14:42:32.339Z,101248.04
2022-08-24T14:45:09.814Z,101245.96
2022-08-24T14:47:45.527Z,101241.73
2022-08-24T14:50:14.458Z,101240.86
2022-08-24T14:53:10.036Z,101237.18
2022-08-24T14:55:41.539Z,101229.71
2022-08-24T14:58:29.004Z,101227.38
2022-08-24T15:01:14.282Z,101225.34
2022-08-24T15:03:52.994Z,101223.92
2022-08-24T15:06:28.495Z,101224.13
2022-08-24T15:09:07.498Z,101220.06
2022-08-24T15:11:38.784Z,101220.57
2022-08-24T15:14:11.292Z,101223.02
2022-08-24T15:16:54.141Z,101224.94
2022-08-24T15:19:27.143Z,101228.65
2022-08-24T15:22:03.341Z,101228.11
2022-08-24T15:24:47.297Z,101221.92
2022-08-24T15:27:22.852Z,101223.04
2022-08-24T15:29:54.172Z,101220.11
2022-08-24T15:32:22.849Z,101223.02
2022-08-24T15:34:57.764Z,101219.38
2022-08-24T15:37:26.870Z,101221.46
2022-08-24T15:39:53.289Z,101222.50
2022-08-24T15:42:20.490Z,101221.48
2022-08-24T15:44:49.595Z,101219.80
2022-08-24T15:47:18.817Z,101217.10
2022-08-24T15:49:54.849Z,101216.44
2022-08-24T15:52:43.261Z,101219.41
2022-08-24T15:55:40.752Z,101220.60
2022-08-24T15:58:26.153Z,101217.98
2022-08-24T16:01:18.165Z,101214.56
2022-08-24T16:03:52.167Z,101214.38
2022-08-24T16:06:38.203Z,101215.80
2022-08-24T16:09:07.639Z,101214.43
2022-08-24T16:11:41.783Z,101213.25
2022-08-24T16:14:29.674Z,101216.54
2022-08-24T16:16:58.359Z,101217.06
2022-08-24T16:19:30.567Z,101216.88
2022-08-24T16:22:01.809Z,101216.11
2022-08-24T16:24:35.520Z,101220.69
2022-08-24T16:27:12.363Z,101224.55
2022-08-24T16:29:38.938Z,101226.34
2022-08-24T16:32:12.901Z,101231.54
2022-08-24T16:34:52.403Z,101235.89
2022-08-24T16:37:20.158Z,101231.59
2022-08-24T16:39:48.323Z,101231.87
2022-08-24T16:42:27.180Z,101230.69
2022-08-24T16:44:54.822Z,101235.20
2022-08-24T16:47:23.055Z,101233.88
2022-08-24T16:49:50.892Z,101238.08
2022-08-24T16:52:18.430Z,101237.98
2022-08-24T16:54:46.082Z,101245.55
2022-08-24T16:57:20.458Z,101254.69
2022-08-24T16:59:48.160Z,101250.48
2022-08-24T17:02:17.127Z,101248.92
2022-08-24T17:04:44.109Z,101247.41
2022-08-24T17:07:15.134Z,101246.92
2022-08-24T17:09:45.714Z,101248.42
2022-08-24T17:12:12.376Z,101250.08
2022-08-24T17:14:39.044Z,101251.91
2022-08-24T17:17:12.902Z,101249.42
2022-08-24T17:19:40.215Z,101253.91
2022-08-24T17:22:14.343Z,101252.71
2022-08-24T17:24:44.043Z,101255.41
2022-08-24T17:27:12.443Z,101260.80
2022-08-24T17:29:39.802Z,101264.05
2022-08-24T17:32:06.329Z,101266.41
2022-08-24T17:34:33.269Z,101268.40
2022-08-24T17:37:00.833Z,101269.52
2022-08-24T17:39:27.639Z,101269.01
2022-08-24T17:41:56.483Z,101279.75
2022-08-24T17:44:26.469Z,101286.36
2022-08-24T17:46:56.917Z,101285.88
2022-08-24T17:49:23.541Z,101286.08
2022-08-24T17:51:50.049Z,101291.64
2022-08-24T17:54:17.053Z,101295.05
2022-08-24T17:56:45.913Z,101296.54
2022-08-24T17:59:24.115Z,101297.31
2022-08-24T18:01:57.905Z,101297.19
2022-08-24T18:04:29.515Z,101297.07
2022-08-24T18:07:02.675Z,101297.64
2022-08-24T18:09:32.915Z,101303.73
2022-08-24T18:12:02.962Z,101307.49
2022-08-24T18:14:30.282Z,101308.77
2022-08-24T18:17:00.633Z,101312.53
2022-08-24T18:19:27.466Z,101306.34
2022-08-24T18:21:53.822Z,101300.15
2022-08-24T18:24:20.461Z,101300.18
2022-08-24T18:26:48.230Z,101303.58
2022-08-24T18:29:17.410Z,101306.80
2022-08-24T18:31:44.336Z,101302.96
2022-08-24T18:34:16.558Z,101304.64
2022-08-24T18:36:42.962Z,101299.73
2022-08-24T18:39:09.445Z,101298.54
2022-08-24T18:41:38.761Z,101302.30
2022-08-24T18:44:07.495Z,101300.55
2022-08-24T18:46:34.358Z,101299.67
2022-08-24T18:49:01.829Z,101300.00
2022-08-24T18:51:34.332Z,101302.52
2022-08-24T18:54:10.083Z,101303.20
2022-08-24T18:56:37.102Z,101303.21
2022-08-24T18:59:04.458Z,101301.07
2022-08-24T19:01:52.848Z,101302.51
2022-08-24T19:04:19.400Z,101299.00
2022-08-24T19:06:50.526Z,101296.86
2022-08-24T19:09:17.412Z,101298.09
2022-08-24T19:11:44.333Z,101297.56
2022-08-24T19:14:12.103Z,101299.53
2022-08-24T19:16:39.796Z,101293.14
2022-08-24T19:19:06.844Z,101293.35
2022-08-24T19:21:35.982Z,101291.59
2022-08-24T19:24:03.963Z,101291.57
2022-08-24T19:26:31.157Z,101285.70
2022-08-24T19:28:58.876Z,101286.23
2022-08-24T19:31:27.730Z,101287.66
2022-08-24T19:33:59.238Z,101287.64
2022-08-24T19:36:31.274Z,101289.05
2022-08-24T19:38:58.624Z,101286.20
2022-08-24T19:41:30.306Z,101284.96
2022-08-24T19:44:27.888Z,101286.05
2022-08-24T19:46:55.278Z,101286.95
2022-08-24T19:49:22.280Z,101286.58
2022-08-24T19:51:50.345Z,101289.05
2022-08-24T19:54:17.475Z,101286.57
2022-08-24T19:56:44.774Z,101288.52
2022-08-24T19:59:26.103Z,101289.45
2022-08-24T20:01:52.989Z,101287.70
2022-08-24T20:04:19.501Z,101287.92
2022-08-24T20:06:46.367Z,101291.67
2022-08-24T20:09:13.076Z,101292.39
2022-08-24T20:11:40.298Z,101291.86
2022-08-24T20:14:07.036Z,101298.45
2022-08-24T20:16:43.521Z,101298.99
2022-08-24T20:19:11.227Z,101300.77
2022-08-24T20:21:38.268Z,101302.54
2022-08-24T20:24:05.831Z,101307.87
2022-08-24T20:26:39.831Z,101305.56
2022-08-24T20:29:06.688Z,101307.88
2022-08-24T20:31:33.310Z,101311.78
2022-08-24T20:34:00.028Z,101315.53
2022-08-24T20:36:38.865Z,101316.27
2022-08-24T20:39:09.166Z,101315.03
2022-08-24T20:41:36.690Z,101312.55
2022-08-24T20:44:03.899Z,101321.11
2022-08-24T20:46:31.335Z,101321.47
2022-08-24T20:48:58.764Z,101322.20
2022-08-24T20:51:26.113Z,101321.14
2022-08-24T20:53:53.422Z,101323.64
2022-08-24T20:56:33.146Z,101325.59
2022-08-24T20:59:09.209Z,101327.89
2022-08-24T21:01:37.042Z,101328.80
2022-08-24T21:04:05.477Z,101328.98
2022-08-24T21:06:33.685Z,101327.55
2022-08-24T21:09:00.440Z,101326.48
2022-08-24T21:11:26.870Z,101323.11
2022-08-24T21:13:53.353Z,101322.56
2022-08-24T21:16:20.261Z,101317.60
2022-08-24T21:18:47.291Z,101313.88
2022-08-24T21:21:14.258Z,101313.01
2022-08-24T21:23:40.923Z,101314.61
2022-08-24T21:26:11.215Z,101313.02
2022-08-24T21:28:41.358Z,101313.18
2022-08-24T21:31:08.398Z,101311.25
2022-08-24T21:33:53.258Z,101310.70
2022-08-24T21:36:22.825Z,101309.80
2022-08-24T21:38:51.426Z,101306.27
2022-08-24T21:41:18.341Z,101308.23
2022-08-24T21:43:45.013Z,101302.02
2022-08-24T21:46:11.966Z,101300.77
2022-08-24T21:48:39.224Z,101298.83
2022-08-24T21:51:06.168Z,101298.45
2022-08-24T21:53:32.746Z,101300.41
2022-08-24T21:56:01.801Z,101299.69
2022-08-24T21:58:28.939Z,101300.75
2022-08-24T22:00:58.870Z,101295.08
2022-08-24T22:03:27.540Z,101297.56
2022-08-24T22:05:59.210Z,101294.19
2022-08-24T22:08:26.252Z,101293.30
2022-08-24T22:10:54.830Z,101291.89
2022-08-24T22:13:21.269Z,101289.05
2022-08-24T22:15:47.846Z,101292.61
2022-08-24T22:18:15.264Z,101291.36
2022-08-24T22:20:41.725Z,101289.43
2022-08-24T22:23:08.262Z,101282.69
2022-08-24T22:25:34.818Z,101290.52
2022-08-24T22:28:01.322Z,101287.88
2022-08-24T22:30:27.813Z,101280.98
2022-08-24T22:32:54.238Z,101284.35
2022-08-24T22:35:20.676Z,101284.19
2022-08-24T22:37:47.340Z,101284.21
2022-08-24T22:40:14.314Z,101287.77
2022-08-24T22:42:40.938Z,101285.12
2022-08-24T22:45:09.209Z,101285.84
2022-08-24T22:47:36.679Z,101285.12
2022-08-24T22:50:05.987Z,101290.27
2022-08-24T22:52:32.341Z,101292.06
2022-08-24T22:54:58.784Z,101291.70
2022-08-24T22:57:25.387Z,101294.01
2022-08-24T22:59:53.254Z,101291.54
2022-08-24T23:02:20.492Z,101290.83
2022-08-24T23:04:49.985Z,101282.81
2022-08-24T23:07:16.994Z,101279.08
2022-08-24T23:09:45.417Z,101272.88
2022-08-24T23:12:21.799Z,101275.55
2022-08-24T23:14:50.190Z,101274.84
2022-08-24T23:17:17.847Z,101266.33
2022-08-24T23:20:00.042Z,101258.34
2022-08-24T23:22:31.823Z,101258.00
2022-08-24T23:24:59.124Z,101255.69
2022-08-24T23:27:32.782Z,101257.11
2022-08-24T23:30:07.848Z,101253.92
2022-08-24T23:32:34.289Z,101250.02
2022-08-24T23:35:00.950Z,101252.31
2022-08-24T23:37:27.924Z,101251.09
2022-08-24T23:39:54.438Z,101247.02
2022-08-24T23:42:20.963Z,101243.99
2022-08-24T23:44:47.465Z,101244.34
2022-08-24T23:47:13.900Z,101246.81
2022-08-24T23:49:41.113Z,101239.73
2022-08-24T23:52:07.529Z,101234.94
2022-08-24T23:54:34.400Z,101234.59
2022-08-24T23:57:03.379Z,101235.30
2022-08-24T23:59:29.793Z,101229.63
